Time;durP1;ratioP1;P1;durP2;ratioP2;P2;SDS_P1;SDS_P2;PMS_P1;PMS_P2;Temp;Humidity;BMP_temperature;BMP_pressure;BME280_temperature;BME280_humidity;BME280_pressure;Samples;Min_cycle;Max_cycle;Signal;HPM_P1;HPM_P2
2021/05/10 00:01:23;;;;;;;23.25;4.70;;;;;;;31.09;53.18;100781.84;5038936;28;65355;-38
2021/05/10 00:03:53;;;;;;;29.85;5.35;;;;;;;31.15;54.49;100775.53;5047361;28;69691;-38
2021/05/10 00:06:23;;;;;;;12.45;4.78;;;;;;;31.22;55.77;100780.03;5050251;28;66076;-38
2021/05/10 00:08:55;;;;;;;11.55;5.13;;;;;;;31.29;56.79;100792.47;5047663;28;69752;-39
2021/05/10 00:11:27;;;;;;;17.13;4.65;;;;;;;31.34;57.26;100795.34;5051530;27;65788;-40
2021/05/10 00:13:57;;;;;;;14.80;5.47;;;;;;;31.40;57.27;100804.47;5044274;28;69990;-40
2021/05/10 00:16:27;;;;;;;13.73;4.85;;;;;;;31.42;57.86;100813.19;5054617;28;65361;-39
2021/05/10 00:18:57;;;;;;;7.75;5.20;;;;;;;31.51;58.59;100809.16;5043864;28;69561;-40
2021/05/10 00:21:27;;;;;;;18.70;4.72;;;;;;;31.53;58.67;100815.16;5045428;28;66173;-40
2021/05/10 00:23:57;;;;;;;18.00;5.70;;;;;;;31.56;58.78;100820.13;5051642;28;69121;-40
2021/05/10 00:26:27;;;;;;;14.27;4.82;;;;;;;31.61;58.91;100824.88;5046634;28;66620;-39
2021/05/10 00:28:57;;;;;;;10.13;4.93;;;;;;;31.59;59.42;100835.97;5041874;28;69839;-38
2021/05/10 00:31:28;;;;;;;12.85;5.18;;;;;;;31.60;60.31;100837.59;5046394;28;65773;-38
2021/05/10 00:33:58;;;;;;;10.00;5.22;;;;;;;31.67;59.54;100836.69;5045839;28;70211;-39
2021/05/10 00:36:28;;;;;;;12.15;4.88;;;;;;;31.73;59.20;100852.91;5047592;28;66025;-40
2021/05/10 00:38:58;;;;;;;12.70;5.38;;;;;;;31.74;59.50;100848.31;5044725;28;70031;-41
2021/05/10 00:41:29;;;;;;;5.97;4.70;;;;;;;31.69;59.13;100837.28;5014767;28;65615;-38
2021/05/10 00:43:59;;;;;;;7.32;4.68;;;;;;;31.73;59.08;100841.19;5050700;28;69287;-40
2021/05/10 00:46:29;;;;;;;7.40;4.45;;;;;;;31.75;58.73;100849.94;5047159;28;66265;-40
2021/05/10 00:48:59;;;;;;;7.07;4.70;;;;;;;31.76;58.69;100857.00;5042395;28;69889;-40
2021/05/10 00:51:29;;;;;;;8.68;5.68;;;;;;;31.79;58.11;100851.97;5043541;28;66164;-39
2021/05/10 00:53:59;;;;;;;9.73;5.47;;;;;;;31.78;58.26;100855.72;5046120;28;69201;-40
2021/05/10 00:56:31;;;;;;;7.45;5.22;;;;;;;31.77;58.39;100858.69;5044602;28;65549;-39
2021/05/10 00:59:01;;;;;;;13.80;5.78;;;;;;;31.75;58.14;100860.78;5046739;28;69378;-40
2021/05/10 01:01:36;;;;;;;12.85;5.53;;;;;;;31.81;57.75;100859.88;5040517;28;66577;-41
2021/05/10 01:04:10;;;;;;;9.35;5.05;;;;;;;31.82;57.93;100861.56;5015444;28;68980;-39
2021/05/10 01:07:00;;;;;;;8.30;5.15;;;;;;;31.82;58.11;100864.28;5033409;28;66573;-40
2021/05/10 01:09:32;;;;;;;13.05;5.70;;;;;;;31.85;57.64;100861.09;5043973;28;69429;-38
2021/05/10 01:12:07;;;;;;;10.93;5.03;;;;;;;31.90;57.80;100863.97;5045354;28;65303;-38
2021/05/10 01:15:10;;;;;;;15.52;5.40;;;;;;;31.86;57.22;100857.31;5040231;28;70681;-39
2021/05/10 01:17:48;;;;;;;13.68;4.80;;;;;;;31.91;57.37;100871.06;5043057;28;65491;-39
2021/05/10 01:20:23;;;;;;;5.68;5.07;;;;;;;31.93;57.21;100874.38;5047979;28;70108;-37
2021/05/10 01:22:57;;;;;;;15.23;5.25;;;;;;;31.91;57.58;100859.34;5046558;28;65862;-38
2021/05/10 01:25:31;;;;;;;12.30;4.90;;;;;;;31.95;57.26;100869.53;5041172;28;69907;-38
2021/05/10 01:28:05;;;;;;;10.10;4.97;;;;;;;31.97;56.71;100874.75;5041082;28;65991;-38
2021/05/10 01:30:57;;;;;;;21.13;5.50;;;;;;;31.97;56.96;100867.44;5046196;28;70079;-40
2021/05/10 01:33:29;;;;;;;10.05;5.30;;;;;;;31.98;56.99;100860.97;5051022;28;65848;-39
2021/05/10 01:36:01;;;;;;;9.43;5.10;;;;;;;31.98;56.66;100858.25;5046799;28;69829;-38
2021/05/10 01:38:41;;;;;;;9.82;5.22;;;;;;;32.04;56.77;100865.47;5049544;28;65710;-38
2021/05/10 01:41:11;;;;;;;8.73;4.60;;;;;;;32.07;56.70;100861.47;5041602;28;69962;-38
2021/05/10 01:43:44;;;;;;;7.47;5.10;;;;;;;32.10;56.67;100862.91;5028696;28;66081;-39
2021/05/10 01:46:15;;;;;;;11.10;5.53;;;;;;;32.12;56.42;100858.88;5051445;28;70086;-39
2021/05/10 01:48:46;;;;;;;4.90;4.40;;;;;;;32.13;56.10;100857.84;5043478;28;65311;-39
2021/05/10 01:51:16;;;;;;;30.02;5.28;;;;;;;32.15;56.04;100854.88;5048806;28;70412;-39
2021/05/10 01:53:49;;;;;;;21.02;5.78;;;;;;;32.19;56.17;100870.50;5054768;28;66139;-39
2021/05/10 01:56:20;;;;;;;18.02;4.90;;;;;;;32.21;55.64;100864.84;5053433;28;71293;-38
2021/05/10 01:58:55;;;;;;;19.10;4.90;;;;;;;32.12;56.02;100855.34;5051827;28;65621;-39
2021/05/10 02:01:28;;;;;;;17.13;5.30;;;;;;;32.28;55.80;100879.13;5056743;28;70486;-38
2021/05/10 02:04:00;;;;;;;14.68;4.38;;;;;;;32.28;55.65;100884.56;5050624;28;66135;-38
2021/05/10 02:06:33;;;;;;;6.20;4.55;;;;;;;32.34;55.58;100880.91;5052427;28;70589;-39
2021/05/10 02:09:24;;;;;;;10.70;4.40;;;;;;;32.35;55.20;100877.16;5057456;28;66100;-39
2021/05/10 02:11:55;;;;;;;10.00;4.28;;;;;;;32.37;55.55;100883.16;5037383;28;70445;-39
2021/05/10 02:14:26;;;;;;;6.13;4.57;;;;;;;32.35;55.25;100887.19;5039499;28;66031;-39
2021/05/10 02:16:56;;;;;;;5.68;4.60;;;;;;;32.41;55.27;100886.28;5043722;28;69342;-39
2021/05/10 02:19:27;;;;;;;6.25;4.35;;;;;;;32.41;55.40;100887.09;5052859;28;65370;-38
2021/05/10 02:21:59;;;;;;;16.42;4.65;;;;;;;32.41;55.22;100889.81;5051293;28;70100;-38
2021/05/10 02:24:37;;;;;;;6.95;4.40;;;;;;;32.46;55.33;100887.28;5054582;27;66012;-39
2021/05/10 02:27:11;;;;;;;10.27;5.15;;;;;;;32.41;54.83;100876.25;5037006;28;69792;-38
2021/05/10 02:29:44;;;;;;;7.68;4.85;;;;;;;32.51;55.06;100885.72;5043542;28;65466;-40
2021/05/10 02:32:35;;;;;;;5.68;5.07;;;;;;;32.54;55.01;100882.56;5040704;28;68990;-39
2021/05/10 02:35:09;;;;;;;6.82;4.47;;;;;;;32.56;54.83;100883.16;5052629;28;65263;-38
2021/05/10 02:37:44;;;;;;;7.15;4.60;;;;;;;32.61;54.80;100886.84;5056621;28;69919;-38
2021/05/10 02:40:16;;;;;;;12.00;4.03;;;;;;;32.65;54.93;100889.91;5066051;28;66691;-37
2021/05/10 02:43:11;;;;;;;4.57;3.90;;;;;;;32.67;54.89;100899.47;5048020;27;70111;-40
2021/05/10 02:45:41;;;;;;;5.53;5.00;;;;;;;32.69;54.55;100893.81;5056046;27;66023;-40
2021/05/10 02:48:12;;;;;;;7.25;4.60;;;;;;;32.71;54.81;100891.72;5052886;28;69396;-40
2021/05/10 02:50:47;;;;;;;4.88;3.95;;;;;;;32.74;54.54;100899.41;5048347;28;65661;-38
2021/05/10 02:53:37;;;;;;;8.25;4.20;;;;;;;32.75;54.42;100892.88;5059412;28;69465;-40
2021/05/10 02:56:07;;;;;;;4.78;4.00;;;;;;;32.78;54.42;100892.41;5031118;28;64526;-39
2021/05/10 02:58:37;;;;;;;4.80;4.22;;;;;;;32.80;54.40;100890.31;5051865;28;70433;-38
2021/05/10 03:01:09;;;;;;;5.15;3.67;;;;;;;32.86;54.21;100893.97;5039001;28;65723;-39
2021/05/10 03:03:44;;;;;;;10.27;4.00;;;;;;;32.85;54.06;100893.16;5053834;27;70534;-40
2021/05/10 03:06:19;;;;;;;4.10;3.72;;;;;;;32.90;53.64;100887.84;5050176;28;64810;-39
2021/05/10 03:08:49;;;;;;;6.10;4.40;;;;;;;32.93;54.04;100895.53;5014629;28;70165;-39
2021/05/10 03:11:20;;;;;;;8.25;3.75;;;;;;;32.97;53.72;100881.47;5050112;28;66161;-39
2021/05/10 03:13:50;;;;;;;7.10;4.15;;;;;;;32.99;53.33;100882.91;5047248;28;69504;-39
2021/05/10 03:16:20;;;;;;;5.95;3.78;;;;;;;33.00;53.59;100886.47;5047535;28;66024;-39
2021/05/10 03:18:50;;;;;;;6.95;3.50;;;;;;;33.02;53.52;100884.34;5053200;28;69892;-40
2021/05/10 03:21:21;;;;;;;5.72;3.85;;;;;;;33.04;53.25;100874.91;5051779;28;65903;-40
2021/05/10 03:23:52;;;;;;;5.03;3.72;;;;;;;33.06;53.32;100872.75;5050774;28;69981;-39
2021/05/10 03:26:22;;;;;;;5.05;3.78;;;;;;;33.14;53.33;100875.13;5055078;28;64588;-40
2021/05/10 03:28:55;;;;;;;4.82;3.97;;;;;;;33.19;53.32;100870.88;5054785;28;70226;-41
2021/05/10 03:31:25;;;;;;;3.90;3.60;;;;;;;33.18;53.19;100864.59;5041898;28;66520;-39
2021/05/10 03:33:55;;;;;;;6.13;4.10;;;;;;;33.21;53.01;100861.44;5047892;28;69015;-39
2021/05/10 03:36:25;;;;;;;6.65;3.88;;;;;;;33.26;52.97;100869.69;5050918;28;66007;-39
2021/05/10 03:38:55;;;;;;;5.20;4.22;;;;;;;33.29;52.78;100865.66;5046363;28;70334;-39
2021/05/10 03:41:25;;;;;;;4.68;3.80;;;;;;;33.32;52.81;100876.91;5051883;28;66294;-39
2021/05/10 03:43:57;;;;;;;3.83;3.53;;;;;;;33.35;52.51;100875.63;5049533;28;69040;-39
2021/05/10 03:46:27;;;;;;;4.60;4.05;;;;;;;33.35;52.42;100865.56;5048124;27;66186;-39
2021/05/10 03:48:57;;;;;;;8.30;3.70;;;;;;;33.40;52.43;100872.16;5048878;28;69023;-39
2021/05/10 03:51:27;;;;;;;4.32;3.90;;;;;;;33.38;52.49;100861.53;5047773;28;65994;-40
2021/05/10 03:53:57;;;;;;;3.65;3.35;;;;;;;33.42;52.54;100854.53;5053406;28;70590;-43
2021/05/10 03:56:30;;;;;;;4.05;3.65;;;;;;;33.44;52.75;100854.31;5010494;28;66382;-39
2021/05/10 03:59:00;;;;;;;3.97;3.58;;;;;;;33.45;52.51;100842.38;5045818;28;69926;-44
2021/05/10 04:01:31;;;;;;;4.35;4.00;;;;;;;33.48;52.32;100839.16;5017948;28;65980;-38
2021/05/10 04:07:41;;;;;;;5.50;3.50;;;;;;;33.52;52.41;100832.19;5049430;27;65847;-44
2021/05/10 04:15:31;;;;;;;4.20;3.37;;;;;;;33.61;52.15;100819.09;5042482;28;69227;-42
2021/05/10 04:18:02;;;;;;;4.25;3.08;;;;;;;33.61;52.20;100814.47;5043918;28;66425;-39
2021/05/10 04:20:32;;;;;;;3.70;3.40;;;;;;;33.59;52.18;100800.28;5043633;28;71456;-39
2021/05/10 04:23:05;;;;;;;4.22;3.53;;;;;;;33.64;52.00;100808.53;5023779;28;66737;-40
2021/05/10 04:25:36;;;;;;;6.15;3.58;;;;;;;33.68;52.07;100793.38;5043954;28;70374;-39
2021/05/10 04:28:06;;;;;;;3.78;3.25;;;;;;;33.69;51.94;100795.03;5047706;28;66105;-39
2021/05/10 04:30:36;;;;;;;10.15;3.45;;;;;;;33.71;51.95;100792.06;5048277;28;69858;-38
2021/05/10 04:33:08;;;;;;;3.60;3.33;;;;;;;33.72;51.79;100793.75;5048862;28;66458;-40
2021/05/10 04:35:39;;;;;;;7.18;3.90;;;;;;;33.72;51.85;100797.28;5051831;28;70319;-39
2021/05/10 04:38:13;;;;;;;3.93;3.53;;;;;;;33.71;52.03;100792.06;5049010;28;66210;-39
2021/05/10 04:40:44;;;;;;;11.55;3.30;;;;;;;33.75;51.84;100783.19;5053790;28;69427;-40
2021/05/10 04:43:15;;;;;;;5.22;3.42;;;;;;;33.77;51.58;100781.06;5043876;28;66023;-39
2021/05/10 04:45:45;;;;;;;5.03;3.53;;;;;;;33.80;51.66;100777.84;5057401;28;68852;-38
2021/05/10 04:48:15;;;;;;;3.45;3.15;;;;;;;33.80;51.79;100769.69;5050421;28;65965;-39
2021/05/10 04:50:46;;;;;;;3.45;3.15;;;;;;;33.79;51.67;100762.59;5049976;28;70789;-40
2021/05/10 04:53:16;;;;;;;6.00;3.17;;;;;;;33.84;51.40;100763.75;5049163;28;65358;-39
2021/05/10 04:55:46;;;;;;;3.55;2.95;;;;;;;33.83;51.68;100756.69;5051328;28;69843;-38
2021/05/10 04:58:17;;;;;;;5.15;3.85;;;;;;;33.87;51.87;100758.66;5060430;28;65958;-39
2021/05/10 05:00:47;;;;;;;3.58;3.28;;;;;;;33.90;51.20;100749.19;5055327;28;69090;-39
2021/05/10 05:03:17;;;;;;;6.05;2.95;;;;;;;33.95;51.57;100749.28;5054315;28;66175;-39
2021/05/10 05:05:47;;;;;;;5.00;3.25;;;;;;;33.95;51.40;100746.56;5044787;28;70171;-43
2021/05/10 05:08:19;;;;;;;;;;;;;;;33.86;51.64;100746.13;5059042;28;65996;-39
2021/05/10 05:10:50;;;;;;;4.90;2.92;;;;;;;33.99;51.54;100736.81;5047314;28;69367;-39
2021/05/10 05:13:22;;;;;;;5.82;3.85;;;;;;;33.91;51.61;100716.28;5047238;28;66444;-40
2021/05/10 05:15:56;;;;;;;4.65;3.25;;;;;;;34.00;51.16;100719.44;5063809;28;70142;-40
2021/05/10 05:18:32;;;;;;;5.57;3.08;;;;;;;34.02;51.26;100718.13;5048119;28;66387;-40
2021/05/10 05:21:24;;;;;;;4.40;3.63;;;;;;;34.04;51.13;100715.13;5048458;28;69945;-40
2021/05/10 05:23:57;;;;;;;3.17;2.83;;;;;;;33.98;51.18;100694.34;5060830;28;66122;-39
2021/05/10 05:26:28;;;;;;;4.77;3.27;;;;;;;34.07;51.30;100701.06;5053737;28;71810;-39
2021/05/10 05:29:01;;;;;;;6.00;3.00;;;;;;;34.07;51.15;100698.34;5044720;28;65670;-39
2021/05/10 05:31:39;;;;;;;3.45;3.05;;;;;;;34.05;51.11;100689.63;5056623;28;69894;-40
2021/05/10 05:34:10;;;;;;;3.88;2.95;;;;;;;34.12;51.20;100684.00;5048307;28;64780;-37
2021/05/10 05:36:42;;;;;;;3.63;2.80;;;;;;;34.13;50.99;100689.22;5037795;28;69883;-40
2021/05/10 05:39:16;;;;;;;5.43;3.45;;;;;;;34.14;51.13;100681.88;5053988;28;66406;-39
2021/05/10 05:41:50;;;;;;;8.27;3.35;;;;;;;34.17;51.13;100671.28;5052846;28;69737;-38
2021/05/10 05:44:21;;;;;;;3.83;3.20;;;;;;;34.19;51.03;100661.00;5052075;28;66225;-39
2021/05/10 05:47:16;;;;;;;3.85;2.80;;;;;;;34.23;50.98;100653.16;5048803;28;69604;-38
2021/05/10 05:49:50;;;;;;;7.38;3.08;;;;;;;34.23;50.82;100648.50;5053811;28;66130;-40
2021/05/10 05:52:22;;;;;;;4.37;3.00;;;;;;;34.24;51.10;100647.47;5053525;28;71335;-40
2021/05/10 05:54:56;;;;;;;3.88;2.90;;;;;;;34.25;50.96;100640.94;5060029;28;65811;-39
2021/05/10 05:57:30;;;;;;;3.13;2.80;;;;;;;34.27;50.80;100624.38;5047823;28;70272;-38
2021/05/10 06:00:02;;;;;;;7.93;3.00;;;;;;;34.35;50.54;100623.09;5044655;28;66259;-38
2021/05/10 06:02:41;;;;;;;5.18;2.80;;;;;;;34.38;50.62;100619.88;5048568;28;69056;-39
2021/05/10 06:05:15;;;;;;;2.97;2.72;;;;;;;34.40;50.71;100613.09;5056826;28;66072;-40
2021/05/10 06:07:52;;;;;;;6.03;2.80;;;;;;;34.38;50.47;100601.66;5048303;28;69305;-39
2021/05/10 06:10:25;;;;;;;6.75;3.20;;;;;;;34.41;50.77;100603.88;5055660;28;66106;-39
2021/05/10 06:12:57;;;;;;;3.20;2.85;;;;;;;34.49;50.56;100597.16;5056756;28;70620;-39
2021/05/10 06:15:29;;;;;;;8.65;3.25;;;;;;;34.50;50.52;100587.09;5031487;28;66845;-39
2021/05/10 06:18:01;;;;;;;5.65;3.20;;;;;;;34.54;50.65;100591.78;5051181;28;68784;-38
2021/05/10 06:20:35;;;;;;;2.85;2.55;;;;;;;34.57;50.49;100572.22;5068435;27;66220;-39
2021/05/10 06:23:06;;;;;;;3.03;2.50;;;;;;;34.61;50.47;100576.09;5052181;28;70163;-39
2021/05/10 06:25:38;;;;;;;3.17;2.92;;;;;;;34.64;50.30;100578.31;5055608;27;65248;-39
2021/05/10 06:28:09;;;;;;;3.17;2.97;;;;;;;34.67;50.96;100571.53;5054943;28;68747;-39
2021/05/10 06:30:40;;;;;;;3.20;2.55;;;;;;;34.73;50.07;100569.69;5042286;28;67084;-40
2021/05/10 06:33:11;;;;;;;6.57;2.65;;;;;;;34.75;50.09;100564.84;5053000;28;70522;-37
2021/05/10 06:35:42;;;;;;;3.33;2.70;;;;;;;34.81;50.07;100556.44;5056293;28;66231;-39
2021/05/10 06:38:13;;;;;;;2.70;2.50;;;;;;;34.70;49.70;100522.00;5052363;28;70148;-39
2021/05/10 06:40:44;;;;;;;8.13;2.45;;;;;;;34.91;49.72;100555.75;5059162;28;66114;-40
2021/05/10 06:43:14;;;;;;;2.88;2.67;;;;;;;34.96;49.90;100544.88;5057156;27;69972;-39
2021/05/10 06:45:44;;;;;;;3.35;2.50;;;;;;;34.98;49.46;100550.91;5053032;28;66458;-39
2021/05/10 06:48:32;;;;;;;4.15;2.60;;;;;;;34.95;49.55;100535.06;5059062;28;70828;-40
2021/05/10 06:51:05;;;;;;;6.35;2.63;;;;;;;35.09;49.65;100549.97;5052305;28;66317;-38
2021/05/10 06:53:36;;;;;;;3.83;2.85;;;;;;;35.04;49.30;100544.44;5056541;28;70510;-39
2021/05/10 06:56:06;;;;;;;2.10;1.98;;;;;;;35.18;49.60;100544.88;5056831;28;65927;-39
2021/05/10 06:58:37;;;;;;;3.80;2.83;;;;;;;35.21;49.63;100538.09;5046758;28;70821;-40
2021/05/10 07:01:08;;;;;;;2.78;2.33;;;;;;;35.24;49.15;100537.56;5049630;28;66652;-39
2021/05/10 07:03:40;;;;;;;2.88;2.15;;;;;;;35.27;49.32;100528.88;5047608;28;70107;-40
2021/05/10 07:06:11;;;;;;;5.60;2.58;;;;;;;35.32;49.19;100528.91;5057165;28;65712;-39
2021/05/10 07:08:42;;;;;;;2.97;2.50;;;;;;;35.35;49.15;100533.84;5052517;28;70520;-39
2021/05/10 07:11:14;;;;;;;2.75;2.38;;;;;;;35.40;49.16;100527.63;5049795;28;65260;-39
2021/05/10 07:13:45;;;;;;;2.57;2.27;;;;;;;35.42;49.22;100529.00;5049316;28;71233;-39
2021/05/10 07:16:22;;;;;;;6.20;2.63;;;;;;;35.39;49.39;100515.91;5050111;28;66836;-39
2021/05/10 07:18:54;;;;;;;3.17;2.08;;;;;;;35.42;49.20;100512.66;5041800;28;69610;-39
2021/05/10 07:21:29;;;;;;;5.13;2.05;;;;;;;35.48;49.07;100516.25;5058475;28;66045;-39
2021/05/10 07:24:01;;;;;;;6.85;2.72;;;;;;;35.52;48.94;100512.75;5056967;28;70384;-39
2021/05/10 07:26:34;;;;;;;4.75;2.42;;;;;;;35.54;48.67;100516.00;5054162;28;66806;-39
2021/05/10 07:29:05;;;;;;;3.08;2.63;;;;;;;35.57;49.00;100514.69;5049329;27;69144;-38
2021/05/10 07:31:37;;;;;;;5.72;2.40;;;;;;;35.57;49.03;100501.88;5052980;28;65758;-40
2021/05/10 07:34:10;;;;;;;11.48;2.67;;;;;;;35.61;48.76;100495.88;5045962;28;70255;-39
2021/05/10 07:36:41;;;;;;;3.42;2.47;;;;;;;35.67;48.92;100486.69;5055003;28;66804;-39
2021/05/10 07:39:11;;;;;;;6.55;2.75;;;;;;;35.69;48.62;100489.94;5052680;28;69991;-39
2021/05/10 07:41:41;;;;;;;5.88;2.53;;;;;;;35.71;48.96;100487.78;5047537;28;65019;-39
2021/05/10 07:44:13;;;;;;;6.57;2.58;;;;;;;35.74;48.65;100481.78;5050394;28;69518;-39
2021/05/10 07:46:43;;;;;;;3.05;2.55;;;;;;;35.75;48.93;100472.56;5047312;28;65171;-39
2021/05/10 07:49:14;;;;;;;5.47;2.70;;;;;;;35.74;48.40;100465.44;5045385;28;70421;-39
2021/05/10 07:51:44;;;;;;;10.80;2.45;;;;;;;35.84;48.67;100487.31;5053715;28;65525;-39
2021/05/10 07:54:15;;;;;;;4.93;2.50;;;;;;;35.85;48.88;100467.13;5051911;28;69882;-39
2021/05/10 07:56:46;;;;;;;6.10;2.37;;;;;;;35.86;48.43;100476.97;5051277;28;66224;-39
2021/05/10 07:59:16;;;;;;;9.85;2.17;;;;;;;35.89;48.28;100484.63;5045303;28;69795;-39
2021/05/10 08:01:47;;;;;;;5.30;2.38;;;;;;;35.91;48.49;100481.63;5047400;28;66507;-39
2021/05/10 08:04:18;;;;;;;5.78;2.55;;;;;;;35.91;48.42;100477.00;5047288;28;70471;-39
2021/05/10 08:06:48;;;;;;;4.78;2.47;;;;;;;35.93;48.16;100474.81;5051936;28;65801;-39
2021/05/10 08:09:20;;;;;;;9.23;2.60;;;;;;;35.94;48.37;100484.66;5050489;28;69122;-40
2021/05/10 08:11:51;;;;;;;2.22;2.03;;;;;;;35.96;48.24;100482.47;5047329;28;65152;-39
2021/05/10 08:14:22;;;;;;;3.10;2.10;;;;;;;35.98;48.46;100477.59;5049714;28;69785;-41
2021/05/10 08:16:53;;;;;;;6.28;2.15;;;;;;;35.97;48.43;100484.13;5048049;28;65385;-40
2021/05/10 08:19:24;;;;;;;4.83;2.10;;;;;;;35.99;48.83;100484.66;5050230;28;70289;-39
2021/05/10 08:21:57;;;;;;;10.07;2.50;;;;;;;36.01;48.48;100481.69;5046487;28;65927;-39
2021/05/10 08:24:28;;;;;;;4.60;2.15;;;;;;;36.02;48.36;100484.16;5048695;28;70073;-38
2021/05/10 08:27:00;;;;;;;2.58;2.10;;;;;;;36.04;48.10;100481.16;5058542;28;65531;-38
2021/05/10 08:29:32;;;;;;;5.78;2.40;;;;;;;36.00;47.95;100477.34;5048516;28;70685;-38
2021/05/10 08:32:05;;;;;;;11.25;2.13;;;;;;;36.05;48.50;100481.97;5047210;28;66700;-40
2021/05/10 08:34:36;;;;;;;;;;;;;;;35.88;48.25;100476.69;5052099;28;69914;-39
2021/05/10 08:37:08;;;;;;;6.15;2.42;;;;;;;36.05;48.62;100471.91;5045909;28;66826;-40
2021/05/10 08:39:40;;;;;;;5.85;2.45;;;;;;;36.06;48.59;100470.84;5050225;28;69757;-39
2021/05/10 08:42:11;;;;;;;7.32;2.10;;;;;;;36.06;48.28;100467.28;5043220;28;65971;-39
2021/05/10 08:44:42;;;;;;;6.07;2.25;;;;;;;35.98;48.19;100455.75;5043073;28;70602;-39
2021/05/10 08:47:12;;;;;;;;;;;;;;;35.97;48.55;100473.22;5054486;28;66690;-39
2021/05/10 08:49:42;;;;;;;3.63;2.33;;;;;;;36.08;48.03;100462.34;5048478;28;69976;-39
2021/05/10 08:52:13;;;;;;;7.47;3.03;;;;;;;36.08;48.14;100459.63;5053055;27;65612;-39
2021/05/10 08:54:43;;;;;;;6.53;2.53;;;;;;;36.06;47.79;100467.28;5051359;28;69837;-40
2021/05/10 08:57:13;;;;;;;4.10;1.90;;;;;;;36.05;48.28;100469.16;5052985;28;66107;-39
2021/05/10 08:59:44;;;;;;;3.67;2.15;;;;;;;36.03;48.30;100474.88;5049612;28;70598;-39
2021/05/10 09:02:14;;;;;;;4.25;2.25;;;;;;;36.06;48.17;100483.66;5044160;28;66130;-40
2021/05/10 09:04:44;;;;;;;4.85;2.15;;;;;;;36.05;48.78;100476.50;5050603;28;69051;-38
2021/05/10 09:07:26;;;;;;;9.23;2.33;;;;;;;35.98;48.63;100460.38;5047574;28;66450;-39
2021/05/10 09:10:00;;;;;;;12.38;2.47;;;;;;;36.02;48.31;100461.47;5047653;28;70173;-39
2021/05/10 09:12:47;;;;;;;2.88;1.90;;;;;;;35.97;48.42;100470.50;5045910;28;66062;-39
2021/05/10 09:15:23;;;;;;;3.15;2.25;;;;;;;35.94;48.72;100460.09;5044769;28;69326;-39
2021/05/10 09:17:56;;;;;;;5.85;1.80;;;;;;;36.06;48.26;100472.75;5048551;28;65453;-40
2021/05/10 09:20:30;;;;;;;5.20;2.03;;;;;;;36.06;48.79;100475.47;5056498;28;70121;-39
2021/05/10 09:23:08;;;;;;;8.23;2.40;;;;;;;36.02;48.57;100469.69;5054601;28;66540;-39
2021/05/10 09:25:54;;;;;;;2.60;2.38;;;;;;;35.93;48.61;100447.53;5053854;28;70300;-39
2021/05/10 09:28:26;;;;;;;6.80;2.05;;;;;;;36.01;48.86;100459.84;5045006;28;66224;-39
2021/05/10 09:31:04;;;;;;;3.47;2.03;;;;;;;35.90;48.48;100434.41;5050053;28;69084;-38
2021/05/10 09:33:53;;;;;;;6.15;2.30;;;;;;;36.01;48.81;100455.22;5037352;28;65384;-37
2021/05/10 09:36:38;;;;;;;3.13;2.10;;;;;;;35.97;48.80;100459.56;5061786;28;70052;-40
2021/05/10 09:39:28;;;;;;;13.07;2.63;;;;;;;35.88;48.52;100450.22;5053746;28;66187;-38
2021/05/10 09:42:08;;;;;;;5.88;2.45;;;;;;;35.98;49.09;100461.19;5063691;28;69799;-38
2021/05/10 09:44:42;;;;;;;8.05;2.40;;;;;;;35.94;48.91;100465.56;5050292;28;65329;-39
2021/05/10 09:47:21;;;;;;;8.25;2.05;;;;;;;35.96;48.53;100468.00;5055022;28;70107;-39
2021/05/10 09:49:51;;;;;;;9.25;2.22;;;;;;;35.97;48.98;100465.03;5055285;28;66130;-38
2021/05/10 09:52:23;;;;;;;6.13;2.28;;;;;;;35.97;48.64;100467.75;5049467;27;69238;-38
2021/05/10 09:55:01;;;;;;;7.97;2.30;;;;;;;35.97;49.29;100477.88;5061806;28;66026;-39
2021/05/10 09:57:32;;;;;;;7.20;2.22;;;;;;;35.92;48.99;100484.09;5051406;27;70098;-39
2021/05/10 10:00:23;;;;;;;4.00;2.28;;;;;;;35.87;49.03;100489.53;5060990;27;65326;-38
2021/05/10 10:02:54;;;;;;;6.13;2.33;;;;;;;35.92;49.19;100492.28;5068657;27;70286;-38
2021/05/10 10:05:25;;;;;;;3.33;2.22;;;;;;;35.88;48.86;100493.88;5053383;28;65836;-39
2021/05/10 10:07:56;;;;;;;7.07;1.90;;;;;;;35.88;49.21;100498.53;5058795;28;70169;-38
2021/05/10 10:10:26;;;;;;;2.65;2.20;;;;;;;35.85;49.01;100510.78;5046699;28;66678;-39
2021/05/10 10:12:56;;;;;;;5.65;2.05;;;;;;;35.84;49.10;100503.69;5055723;28;70028;-39
2021/05/10 10:15:26;;;;;;;3.85;2.70;;;;;;;35.78;49.52;100513.75;5048602;28;65317;-39
2021/05/10 10:17:57;;;;;;;8.13;1.92;;;;;;;35.80;49.38;100516.22;5052696;28;70588;-39
2021/05/10 10:20:28;;;;;;;;;;;;;;;35.68;49.36;100515.59;5060598;28;66194;-39
2021/05/10 10:22:59;;;;;;;4.22;2.20;;;;;;;35.78;49.13;100521.94;5052296;28;69977;-38
2021/05/10 10:25:29;;;;;;;43.72;3.70;;;;;;;35.80;49.88;100527.13;5056207;28;66449;-40
2021/05/10 10:28:18;;;;;;;28.92;4.25;;;;;;;35.55;50.56;100527.72;5058129;28;69824;-43
2021/05/10 10:31:06;;;;;;;23.17;3.95;;;;;;;35.33;51.22;100536.84;5052708;28;65527;-41
2021/05/10 10:33:55;;;;;;;23.90;4.50;;;;;;;35.20;51.80;100552.81;5047567;27;69155;-40
2021/05/10 10:36:33;;;;;;;15.43;3.85;;;;;;;34.97;52.64;100543.00;5043034;28;66591;-42
2021/05/10 10:39:32;;;;;;;10.65;4.00;;;;;;;34.90;52.85;100565.00;5047673;28;69090;-40
2021/05/10 10:42:21;;;;;;;22.55;4.30;;;;;;;34.80;52.80;100556.69;5045678;28;65974;-41
2021/05/10 10:44:55;;;;;;;11.15;3.75;;;;;;;34.86;52.43;100577.50;5063791;28;70004;-40
2021/05/10 10:47:43;;;;;;;10.10;3.80;;;;;;;34.83;52.78;100570.66;5050900;27;66723;-40
2021/05/10 10:50:15;;;;;;;23.80;3.70;;;;;;;34.74;52.38;100549.53;5049958;28;69379;-41
2021/05/10 10:53:08;;;;;;;28.38;3.90;;;;;;;34.63;53.37;100549.44;5054791;28;66119;-40
2021/05/10 10:55:44;;;;;;;;;;;;;;;34.54;53.87;100555.53;5054129;28;68668;-39
2021/05/10 10:58:20;;;;;;;38.58;4.03;;;;;;;34.60;53.20;100560.84;5053207;28;66252;-40
2021/05/10 11:00:57;;;;;;;23.00;3.60;;;;;;;34.60;53.59;100566.28;5040271;28;68873;-40
2021/05/10 11:03:28;;;;;;;13.55;3.35;;;;;;;34.60;52.93;100563.56;5054532;28;65295;-41
2021/05/10 11:05:59;;;;;;;13.32;2.97;;;;;;;34.55;52.88;100579.81;5022372;28;69482;-40
2021/05/10 11:08:44;;;;;;;11.23;3.63;;;;;;;34.53;53.77;100586.59;5051273;28;66575;-40
2021/05/10 11:11:34;;;;;;;36.35;5.10;;;;;;;34.38;54.62;100585.31;5052410;28;69985;-42
2021/05/10 11:14:05;;;;;;;41.80;7.20;;;;;;;34.41;54.14;100589.44;5049615;28;65432;-37
2021/05/10 11:16:55;;;;;;;48.20;9.60;;;;;;;34.38;54.79;100595.34;5047579;28;69722;-38
2021/05/10 11:19:36;;;;;;;49.38;10.75;;;;;;;34.40;55.18;100582.31;5051993;28;65978;-38
2021/05/10 11:22:35;;;;;;;43.63;10.88;;;;;;;34.42;55.15;100585.63;5043067;28;70172;-37
2021/05/10 11:25:36;;;;;;;23.17;9.57;;;;;;;34.37;55.49;100591.00;5051982;28;65010;-37
2021/05/10 11:28:24;;;;;;;33.42;7.88;;;;;;;34.33;55.06;100598.03;5054389;28;69227;-38
2021/05/10 11:31:10;;;;;;;34.17;7.25;;;;;;;34.30;54.65;100587.63;5050548;28;66366;-38
2021/05/10 11:33:55;;;;;;;27.85;6.30;;;;;;;34.23;54.51;100588.63;5043048;28;68972;-38
2021/05/10 11:36:30;;;;;;;24.15;5.22;;;;;;;34.22;54.39;100589.72;5056890;28;65390;-38
2021/05/10 11:39:07;;;;;;;30.70;6.03;;;;;;;34.18;54.36;100602.16;5046724;28;69898;-38
2021/05/10 11:41:38;;;;;;;29.50;5.60;;;;;;;34.27;54.22;100602.59;5054277;28;66086;-38
2021/05/10 11:44:11;;;;;;;14.40;4.78;;;;;;;34.30;54.12;100612.13;5055988;28;69332;-39
2021/05/10 11:46:50;;;;;;;35.92;5.78;;;;;;;34.26;54.23;100623.50;5042333;28;66114;-38
2021/05/10 11:49:30;;;;;;;20.92;5.15;;;;;;;34.28;53.90;100612.38;5050936;28;69936;-39
2021/05/10 11:52:07;;;;;;;14.63;5.47;;;;;;;34.27;53.97;100627.09;5043507;28;66467;-38
2021/05/10 11:54:42;;;;;;;28.75;5.72;;;;;;;34.09;54.42;100625.44;5046543;28;69114;-38
2021/05/10 11:57:14;;;;;;;20.02;4.70;;;;;;;34.06;54.20;100636.81;5050260;28;65962;-37
2021/05/10 11:59:49;;;;;;;32.55;4.50;;;;;;;33.96;54.85;100644.78;5056077;28;69983;-39
2021/05/10 12:02:30;;;;;;;14.20;4.47;;;;;;;33.83;55.29;100632.34;5051558;28;66156;-38
2021/05/10 12:05:04;;;;;;;27.70;5.53;;;;;;;33.86;55.04;100639.19;5043702;28;69881;-37